Rhododendron, Oregon
Current Conditions -  °F | °C
As of 6:53 PM on Monday 26 Jan 2015 (Local Time) from KTTD Reporting Station
Clear Clear  
Wind Chill: 42°   Ceiling: Unl
Heat Index: 47°   Visibility: 10mi
Dew Point: 41°   Wind: 12mph
Humidity: 80%   Direction: 100°E
Pressure: 29.95"   Gusts: NA
Location:  45.33°N, 121.91°W
Report Text: KTTD 270253Z 10010KT 10SM CLR 08/05 A2995 RMK AO2 SLP142 T00830050 57002
Loading
Personal Weather Stations






























Interactive Weather Map New forecast layout! Learn more

10-Day Weather Forecast

Advertisements
Track Severe Weather on mobile